Time;durP1;ratioP1;P1;durP2;ratioP2;P2;SDS_P1;SDS_P2;PMS_P1;PMS_P2;Temp;Humidity;BMP_temperature;BMP_pressure;BME280_temperature;BME280_humidity;BME280_pressure;Samples;Min_cycle;Max_cycle;Signal;HPM_P1;HPM_P2
2022/09/14 00:01:19;;;;;;;2.20;2.00;;;;;;;;;;5035471;28;20409;-47
2022/09/14 00:03:45;;;;;;;16.33;2.27;;;;;;;;;;5032766;28;20876;-47
2022/09/14 00:06:12;;;;;;;2.50;2.30;;;;;;;;;;5036463;28;20457;-47
2022/09/14 00:08:38;;;;;;;3.00;2.03;;;;;;;;;;5054133;28;20405;-46
2022/09/14 00:11:05;;;;;;;4.17;2.83;;;;;;;;;;5052198;28;20451;-46
2022/09/14 00:13:31;;;;;;;4.73;3.20;;;;;;;;;;5040678;28;20420;-47
2022/09/14 00:16:02;;;;;;;2.27;2.07;;;;;;;;;;5038564;28;20469;-47
2022/09/14 00:18:28;;;;;;;5.80;2.40;;;;;;;;;;5039154;28;20425;-47
2022/09/14 00:20:58;;;;;;;2.03;1.87;;;;;;;;;;5053797;28;20462;-46
2022/09/14 00:23:24;;;;;;;12.60;3.20;;;;;;;;;;5052073;28;20417;-46
2022/09/14 00:25:50;;;;;;;7.87;2.80;;;;;;;;;;5038487;28;20705;-47
2022/09/14 00:28:16;;;;;;;6.00;2.23;;;;;;;;;;5042247;28;20417;-48
2022/09/14 00:30:42;;;;;;;6.10;2.27;;;;;;;;;;5038343;28;20749;-47
2022/09/14 00:33:09;;;;;;;4.63;2.00;;;;;;;;;;5051541;28;20424;-47
2022/09/14 00:35:35;;;;;;;5.07;2.00;;;;;;;;;;5040262;28;20429;-47
2022/09/14 00:38:01;;;;;;;8.50;2.93;;;;;;;;;;5033593;28;20373;-46
2022/09/14 00:40:28;;;;;;;4.00;2.10;;;;;;;;;;5043985;28;20425;-47
2022/09/14 00:42:54;;;;;;;2.80;2.00;;;;;;;;;;5053268;28;20383;-46
2022/09/14 00:45:20;;;;;;;7.23;1.90;;;;;;;;;;5043475;28;20419;-47
2022/09/14 00:47:50;;;;;;;4.93;2.03;;;;;;;;;;5042557;28;20426;-46
2022/09/14 00:50:16;;;;;;;8.33;2.40;;;;;;;;;;5048966;28;20511;-46
2022/09/14 00:52:45;;;;;;;14.60;3.33;;;;;;;;;;5044466;28;20899;-46
2022/09/14 00:55:13;;;;;;;5.43;2.40;;;;;;;;;;5052188;28;20547;-47
2022/09/14 00:57:49;;;;;;;4.07;2.47;;;;;;;;;;5053110;28;20447;-47
2022/09/14 01:00:17;;;;;;;10.53;2.37;;;;;;;;;;5050216;28;20412;-46
2022/09/14 01:02:43;;;;;;;4.13;2.00;;;;;;;;;;5041054;28;20423;-47
2022/09/14 01:05:09;;;;;;;10.13;2.50;;;;;;;;;;5035790;28;20392;-47
2022/09/14 01:07:38;;;;;;;7.30;2.50;;;;;;;;;;5052679;28;20434;-48
2022/09/14 01:10:23;;;;;;;4.00;2.10;;;;;;;;;;5050960;28;20444;-47
2022/09/14 01:13:08;;;;;;;6.43;2.50;;;;;;;;;;5052780;28;20380;-48
2022/09/14 01:15:37;;;;;;;12.10;3.17;;;;;;;;;;5042677;28;20425;-46
2022/09/14 01:18:15;;;;;;;4.00;2.13;;;;;;;;;;5032936;28;20451;-47
2022/09/14 01:21:05;;;;;;;8.63;3.20;;;;;;;;;;5043135;28;20384;-47
2022/09/14 01:23:37;;;;;;;5.17;2.37;;;;;;;;;;5049641;28;20498;-46
2022/09/14 01:26:18;;;;;;;7.73;2.70;;;;;;;;;;5038989;28;20442;-46
2022/09/14 01:28:52;;;;;;;6.77;2.30;;;;;;;;;;5032764;28;20404;-47
2022/09/14 01:31:25;;;;;;;9.73;2.43;;;;;;;;;;5036436;28;20909;-47
2022/09/14 01:33:53;;;;;;;5.70;2.10;;;;;;;;;;5032058;28;20413;-47
2022/09/14 01:36:20;;;;;;;4.63;1.90;;;;;;;;;;5046582;28;20437;-48
2022/09/14 01:38:48;;;;;;;7.73;2.40;;;;;;;;;;5052490;28;20384;-47
2022/09/14 01:41:16;;;;;;;7.20;1.80;;;;;;;;;;5038590;28;20392;-47
2022/09/14 01:43:52;;;;;;;9.33;2.13;;;;;;;;;;5047318;28;20416;-46
2022/09/14 01:46:46;;;;;;;13.77;2.30;;;;;;;;;;5052052;28;20519;-47
2022/09/14 01:49:15;;;;;;;3.30;1.70;;;;;;;;;;5035052;28;20887;-47
2022/09/14 01:51:45;;;;;;;6.17;1.77;;;;;;;;;;5032531;28;20851;-47
2022/09/14 01:54:30;;;;;;;4.73;2.20;;;;;;;;;;5046791;28;20437;-47
2022/09/14 01:57:16;;;;;;;3.87;2.10;;;;;;;;;;5051930;28;20575;-47
2022/09/14 01:59:43;;;;;;;5.40;1.80;;;;;;;;;;5032052;28;20421;-47
2022/09/14 02:02:09;;;;;;;5.60;2.20;;;;;;;;;;5032117;28;20430;-47
2022/09/14 02:04:42;;;;;;;4.33;2.17;;;;;;;;;;5049851;28;20893;-48
2022/09/14 02:07:08;;;;;;;3.23;1.90;;;;;;;;;;5051895;28;20966;-46
2022/09/14 02:09:34;;;;;;;4.53;2.23;;;;;;;;;;5033084;28;20418;-47
2022/09/14 02:12:00;;;;;;;4.33;1.93;;;;;;;;;;5032039;28;20406;-48
2022/09/14 02:14:26;;;;;;;10.43;2.17;;;;;;;;;;5048032;28;20490;-46
2022/09/14 02:16:52;;;;;;;10.40;2.30;;;;;;;;;;5051706;28;20514;-48
2022/09/14 02:19:19;;;;;;;9.60;2.00;;;;;;;;;;5035354;28;20889;-48
2022/09/14 02:21:44;;;;;;;4.90;1.83;;;;;;;;;;5031950;28;20505;-48
2022/09/14 02:24:11;;;;;;;5.67;1.90;;;;;;;;;;5045232;28;20826;-46
2022/09/14 02:26:38;;;;;;;5.13;2.40;;;;;;;;;;5032561;28;20458;-48
2022/09/14 02:29:05;;;;;;;4.13;2.00;;;;;;;;;;5044389;28;20424;-47
2022/09/14 02:31:44;;;;;;;2.90;2.10;;;;;;;;;;5051677;28;20909;-47
2022/09/14 02:34:25;;;;;;;7.53;1.90;;;;;;;;;;5032584;28;20461;-48
2022/09/14 02:36:57;;;;;;;5.77;2.10;;;;;;;;;;5036130;28;20413;-47
2022/09/14 02:39:29;;;;;;;3.50;2.10;;;;;;;;;;5034871;28;20506;-48
2022/09/14 02:42:18;;;;;;;8.10;2.53;;;;;;;;;;5036365;28;20485;-47
2022/09/14 02:44:53;;;;;;;6.07;2.03;;;;;;;;;;5021583;28;20783;-46
2022/09/14 02:47:26;;;;;;;6.30;2.30;;;;;;;;;;5031503;28;20403;-46
2022/09/14 02:50:11;;;;;;;5.63;2.23;;;;;;;;;;5032496;28;20475;-47
2022/09/14 02:52:43;;;;;;;5.77;2.00;;;;;;;;;;5044250;28;20782;-47
2022/09/14 02:55:11;;;;;;;10.33;2.00;;;;;;;;;;5041505;28;20454;-47
2022/09/14 02:58:03;;;;;;;15.60;2.40;;;;;;;;;;5051236;28;20930;-47
2022/09/14 03:00:30;;;;;;;11.53;2.27;;;;;;;;;;5036399;28;20402;-47
2022/09/14 03:02:57;;;;;;;8.30;2.30;;;;;;;;;;5031539;28;20486;-46
2022/09/14 03:05:23;;;;;;;4.93;2.33;;;;;;;;;;5042663;28;20934;-48
2022/09/14 03:07:49;;;;;;;3.73;2.20;;;;;;;;;;5049697;28;20423;-48
2022/09/14 03:10:15;;;;;;;8.53;1.77;;;;;;;;;;5031408;28;20386;-46
2022/09/14 03:12:40;;;;;;;10.53;2.33;;;;;;;;;;5031318;28;20864;-48
2022/09/14 03:15:07;;;;;;;2.33;1.90;;;;;;;;;;5042799;28;20484;-47
2022/09/14 03:17:33;;;;;;;4.10;2.33;;;;;;;;;;5031354;28;20418;-48
2022/09/14 03:19:59;;;;;;;6.03;2.40;;;;;;;;;;5049007;28;20905;-47
2022/09/14 03:22:24;;;;;;;6.60;2.20;;;;;;;;;;5040639;28;20420;-47
2022/09/14 03:24:50;;;;;;;7.17;2.60;;;;;;;;;;5030500;28;20460;-48
2022/09/14 03:27:16;;;;;;;7.17;2.00;;;;;;;;;;5046308;28;20402;-47
2022/09/14 03:29:42;;;;;;;3.60;2.17;;;;;;;;;;5051277;28;20915;-49
2022/09/14 03:32:09;;;;;;;8.30;2.13;;;;;;;;;;5037388;28;20505;-46
2022/09/14 03:34:35;;;;;;;6.10;2.30;;;;;;;;;;5030640;28;20430;-47
2022/09/14 03:37:01;;;;;;;5.07;2.20;;;;;;;;;;5042874;28;20776;-47
2022/09/14 03:39:27;;;;;;;3.77;1.90;;;;;;;;;;5051659;28;20422;-49
2022/09/14 03:41:53;;;;;;;6.60;2.40;;;;;;;;;;5043113;28;20488;-48
2022/09/14 03:44:19;;;;;;;5.63;2.40;;;;;;;;;;5034132;28;20971;-48
2022/09/14 03:46:45;;;;;;;7.77;2.60;;;;;;;;;;5043832;28;20413;-47
2022/09/14 03:49:11;;;;;;;7.33;2.50;;;;;;;;;;5054690;28;20390;-47
2022/09/14 03:51:37;;;;;;;4.23;2.40;;;;;;;;;;5046284;28;20426;-48
2022/09/14 03:54:03;;;;;;;4.17;1.80;;;;;;;;;;5033861;28;21009;-46
2022/09/14 03:56:29;;;;;;;5.53;2.30;;;;;;;;;;5041048;28;20415;-47
2022/09/14 03:58:55;;;;;;;11.83;2.90;;;;;;;;;;5054365;28;20403;-47
2022/09/14 04:01:22;;;;;;;5.43;2.20;;;;;;;;;;5047816;28;20403;-46
2022/09/14 04:03:48;;;;;;;7.60;2.20;;;;;;;;;;5044774;28;20381;-48
2022/09/14 04:06:15;;;;;;;7.23;2.10;;;;;;;;;;5039970;28;20429;-48
2022/09/14 04:08:41;;;;;;;3.80;2.67;;;;;;;;;;5036455;28;20419;-46
2022/09/14 04:11:18;;;;;;;4.93;2.70;;;;;;;;;;5034236;28;20839;-47
2022/09/14 04:13:44;;;;;;;16.57;2.60;;;;;;;;;;5040246;28;20427;-47
2022/09/14 04:16:10;;;;;;;14.47;2.90;;;;;;;;;;5033738;28;20453;-47
2022/09/14 04:18:36;;;;;;;5.50;2.50;;;;;;;;;;5048979;28;20829;-48
2022/09/14 04:21:29;;;;;;;6.87;2.50;;;;;;;;;;5053853;28;20407;-48
2022/09/14 04:23:55;;;;;;;6.40;2.50;;;;;;;;;;5037012;28;20448;-47
2022/09/14 04:26:22;;;;;;;7.93;2.70;;;;;;;;;;5050511;28;21042;-47
2022/09/14 04:28:48;;;;;;;9.73;3.07;;;;;;;;;;5053428;28;20885;-47
2022/09/14 04:31:14;;;;;;;5.20;2.83;;;;;;;;;;5038798;28;20899;-46
2022/09/14 04:33:41;;;;;;;11.70;3.10;;;;;;;;;;5034042;28;20369;-47
2022/09/14 04:36:12;;;;;;;8.83;3.40;;;;;;;;;;5053057;28;20403;-47
2022/09/14 04:38:38;;;;;;;4.27;2.67;;;;;;;;;;5053298;28;20439;-48
2022/09/14 04:41:05;;;;;;;4.03;2.47;;;;;;;;;;5033565;28;20469;-47
2022/09/14 04:43:31;;;;;;;5.93;2.70;;;;;;;;;;5033409;28;20477;-46
2022/09/14 04:46:04;;;;;;;3.80;2.70;;;;;;;;;;5051970;28;20471;-48
2022/09/14 04:48:36;;;;;;;6.70;3.17;;;;;;;;;;5053474;28;20442;-47
2022/09/14 04:51:06;;;;;;;8.80;3.37;;;;;;;;;;5033230;28;20502;-49
2022/09/14 04:53:33;;;;;;;10.40;4.10;;;;;;;;;;5033728;28;20414;-48
2022/09/14 04:56:03;;;;;;;4.63;2.70;;;;;;;;;;5044777;28;20508;-50
2022/09/14 04:58:29;;;;;;;8.13;3.23;;;;;;;;;;5032918;28;20380;-49
2022/09/14 05:01:00;;;;;;;8.53;3.10;;;;;;;;;;5033242;28;20457;-49
2022/09/14 05:03:26;;;;;;;7.80;3.30;;;;;;;;;;5032821;28;20422;-51
2022/09/14 05:05:52;;;;;;;6.53;3.80;;;;;;;;;;5049546;28;20449;-51
2022/09/14 05:08:18;;;;;;;4.23;2.87;;;;;;;;;;5053008;28;20425;-48
2022/09/14 05:10:44;;;;;;;8.40;2.97;;;;;;;;;;5036236;28;20422;-49
2022/09/14 05:13:10;;;;;;;12.50;3.40;;;;;;;;;;5032925;28;20395;-51
2022/09/14 05:15:36;;;;;;;6.90;2.80;;;;;;;;;;5047566;28;20439;-50
2022/09/14 05:18:02;;;;;;;4.50;3.17;;;;;;;;;;5052000;28;20369;-51
2022/09/14 05:20:28;;;;;;;7.60;3.90;;;;;;;;;;5038589;28;20441;-50
2022/09/14 05:22:54;;;;;;;8.37;3.60;;;;;;;;;;5032752;28;20374;-50
2022/09/14 05:25:20;;;;;;;7.63;3.60;;;;;;;;;;5045054;28;20462;-51
2022/09/14 05:27:46;;;;;;;8.90;3.93;;;;;;;;;;5052498;28;20432;-50
2022/09/14 05:30:12;;;;;;;6.27;3.43;;;;;;;;;;5050949;28;20461;-51
2022/09/14 05:32:38;;;;;;;5.70;3.20;;;;;;;;;;5052943;28;20372;-48
2022/09/14 05:35:04;;;;;;;8.73;3.70;;;;;;;;;;5040697;28;20461;-50
2022/09/14 05:37:30;;;;;;;9.50;3.77;;;;;;;;;;5032627;28;20428;-49
2022/09/14 05:39:56;;;;;;;4.87;3.30;;;;;;;;;;5041363;28;20885;-51
2022/09/14 05:42:22;;;;;;;5.47;3.13;;;;;;;;;;5052795;28;20903;-49
2022/09/14 05:44:48;;;;;;;6.33;3.70;;;;;;;;;;5043027;28;20929;-49
2022/09/14 05:47:14;;;;;;;9.67;3.60;;;;;;;;;;5032299;28;20769;-51
2022/09/14 05:49:40;;;;;;;4.53;3.40;;;;;;;;;;5033511;28;20527;-48
2022/09/14 05:52:06;;;;;;;5.00;3.30;;;;;;;;;;5032301;28;20598;-51
2022/09/14 05:54:32;;;;;;;5.17;3.50;;;;;;;;;;5037326;28;20430;-51
2022/09/14 05:56:58;;;;;;;4.23;3.53;;;;;;;;;;5051879;28;20483;-51
2022/09/14 05:59:24;;;;;;;12.90;4.83;;;;;;;;;;5047793;28;20414;-51
2022/09/14 06:01:50;;;;;;;7.73;3.77;;;;;;;;;;5031516;28;20397;-51
2022/09/14 06:04:16;;;;;;;20.13;4.20;;;;;;;;;;5034893;28;20404;-51
2022/09/14 06:06:42;;;;;;;9.90;4.07;;;;;;;;;;5051777;28;20421;-50
2022/09/14 06:09:08;;;;;;;5.03;4.00;;;;;;;;;;5049680;28;20455;-49
2022/09/14 06:11:37;;;;;;;5.30;3.03;;;;;;;;;;5031965;28;20464;-49
2022/09/14 06:14:04;;;;;;;5.40;3.57;;;;;;;;;;5032517;28;20851;-51
2022/09/14 06:16:30;;;;;;;12.07;3.93;;;;;;;;;;5051722;28;20442;-50
2022/09/14 06:18:56;;;;;;;6.17;4.23;;;;;;;;;;5051536;28;20445;-50
2022/09/14 06:21:22;;;;;;;4.83;3.80;;;;;;;;;;5031886;28;20369;-51
2022/09/14 06:23:49;;;;;;;6.30;2.70;;;;;;;;;;5032052;28;20398;-51
2022/09/14 06:26:15;;;;;;;8.37;3.20;;;;;;;;;;5050572;28;21146;-50
2022/09/14 06:28:41;;;;;;;5.10;2.97;;;;;;;;;;5051973;28;20514;-51
2022/09/14 06:31:08;;;;;;;7.93;3.20;;;;;;;;;;5034815;28;20859;-50
2022/09/14 06:33:35;;;;;;;6.67;3.10;;;;;;;;;;5031585;28;20378;-51
2022/09/14 06:36:11;;;;;;;5.73;3.40;;;;;;;;;;5047171;28;20445;-50
2022/09/14 06:38:37;;;;;;;12.90;3.40;;;;;;;;;;5051654;28;20418;-50
2022/09/14 06:41:05;;;;;;;7.73;4.83;;;;;;;;;;5035405;28;20945;-49
2022/09/14 06:43:33;;;;;;;4.33;3.03;;;;;;;;;;5031447;28;20405;-49
2022/09/14 06:46:00;;;;;;;9.60;3.83;;;;;;;;;;5038431;28;20583;-49
2022/09/14 06:48:27;;;;;;;7.37;3.90;;;;;;;;;;5040170;28;20431;-46
2022/09/14 06:50:55;;;;;;;6.00;3.87;;;;;;;;;;5045898;28;20396;-48
2022/09/14 06:53:21;;;;;;;6.90;3.53;;;;;;;;;;5051207;28;20383;-48
2022/09/14 06:55:50;;;;;;;7.40;4.00;;;;;;;;;;5052146;28;20980;-48
2022/09/14 06:58:16;;;;;;;7.90;3.60;;;;;;;;;;5051964;28;20391;-48
2022/09/14 07:00:43;;;;;;;12.40;4.13;;;;;;;;;;5040750;28;20411;-50
2022/09/14 07:03:09;;;;;;;11.30;3.87;;;;;;;;;;5030862;28;21004;-51
2022/09/14 07:05:35;;;;;;;5.50;3.90;;;;;;;;;;5040300;28;20428;-48
2022/09/14 07:08:01;;;;;;;5.23;4.47;;;;;;;;;;5049957;28;20880;-50
2022/09/14 07:10:27;;;;;;;5.83;3.87;;;;;;;;;;5039218;28;20468;-48
2022/09/14 07:12:57;;;;;;;9.10;3.87;;;;;;;;;;5030880;28;20387;-49
2022/09/14 07:15:23;;;;;;;4.60;3.43;;;;;;;;;;5043253;28;20478;-49
2022/09/14 07:17:49;;;;;;;6.70;4.20;;;;;;;;;;5054991;28;20946;-51
2022/09/14 07:20:16;;;;;;;10.20;4.77;;;;;;;;;;5053765;28;20466;-49
2022/09/14 07:22:42;;;;;;;8.20;4.10;;;;;;;;;;5055114;28;20546;-50
2022/09/14 07:25:09;;;;;;;10.37;4.90;;;;;;;;;;5047214;28;20414;-47
2022/09/14 07:27:37;;;;;;;8.57;4.60;;;;;;;;;;5034977;28;20819;-51
2022/09/14 07:30:04;;;;;;;11.37;4.90;;;;;;;;;;5041436;28;20384;-50
2022/09/14 07:32:30;;;;;;;10.23;4.53;;;;;;;;;;5054743;28;20380;-48
2022/09/14 07:34:56;;;;;;;5.37;4.03;;;;;;;;;;5052212;28;20891;-50
2022/09/14 07:37:22;;;;;;;9.47;5.13;;;;;;;;;;5054786;28;20425;-50
2022/09/14 07:39:48;;;;;;;9.70;5.47;;;;;;;;;;5050246;28;20872;-51
2022/09/14 07:42:14;;;;;;;10.77;5.00;;;;;;;;;;5034736;28;20482;-50
2022/09/14 07:44:40;;;;;;;5.30;4.80;;;;;;;;;;5035171;28;20800;-51
2022/09/14 07:47:06;;;;;;;6.63;5.00;;;;;;;;;;5054077;28;20532;-50
2022/09/14 07:49:32;;;;;;;5.83;4.97;;;;;;;;;;5052575;28;20406;-51
2022/09/14 07:51:58;;;;;;;6.20;4.80;;;;;;;;;;5034541;28;20433;-49
2022/09/14 07:54:24;;;;;;;6.03;5.43;;;;;;;;;;5034192;28;20458;-51
2022/09/14 07:56:50;;;;;;;11.50;5.20;;;;;;;;;;5035029;28;20936;-51
2022/09/14 07:59:16;;;;;;;11.23;5.70;;;;;;;;;;5034356;28;20380;-49
2022/09/14 08:01:42;;;;;;;7.27;5.07;;;;;;;;;;5053789;28;20909;-50
2022/09/14 08:04:08;;;;;;;7.73;5.70;;;;;;;;;;5053660;28;20410;-48
2022/09/14 08:06:36;;;;;;;14.00;5.07;;;;;;;;;;5035668;28;20470;-49
2022/09/14 08:09:04;;;;;;;7.30;5.20;;;;;;;;;;5035404;28;20426;-50
2022/09/14 08:11:31;;;;;;;6.87;5.80;;;;;;;;;;5034365;28;20407;-51
2022/09/14 08:14:10;;;;;;;6.17;5.60;;;;;;;;;;5038307;28;20429;-48
2022/09/14 08:16:39;;;;;;;9.00;6.20;;;;;;;;;;5034012;28;20781;-50
2022/09/14 08:19:09;;;;;;;7.60;6.83;;;;;;;;;;5045853;28;20414;-48
2022/09/14 08:21:35;;;;;;;12.63;5.93;;;;;;;;;;5053934;28;20859;-50
2022/09/14 08:24:03;;;;;;;10.77;5.37;;;;;;;;;;5049788;28;20486;-50
2022/09/14 08:26:30;;;;;;;8.50;6.17;;;;;;;;;;5044402;28;20438;-48
2022/09/14 08:28:56;;;;;;;14.20;6.97;;;;;;;;;;5037447;28;20398;-50
2022/09/14 08:31:23;;;;;;;10.53;7.07;;;;;;;;;;5036471;28;20811;-51
2022/09/14 08:33:53;;;;;;;6.70;6.00;;;;;;;;;;5052816;28;20847;-45
2022/09/14 08:36:20;;;;;;;9.73;6.13;;;;;;;;;;5048517;28;20520;-45
2022/09/14 08:38:46;;;;;;;7.27;5.10;;;;;;;;;;5053549;28;20415;-45
2022/09/14 08:41:21;;;;;;;8.67;5.07;;;;;;;;;;5042061;28;20422;-47
2022/09/14 08:43:47;;;;;;;10.30;6.70;;;;;;;;;;5032850;28;20426;-47
2022/09/14 08:46:25;;;;;;;7.60;5.00;;;;;;;;;;5033903;28;20421;-46
2022/09/14 08:48:52;;;;;;;9.13;4.87;;;;;;;;;;5033410;28;20419;-48
2022/09/14 08:51:18;;;;;;;8.60;4.53;;;;;;;;;;5044931;28;20512;-45
2022/09/14 08:53:44;;;;;;;9.70;3.97;;;;;;;;;;5052559;28;20416;-50
2022/09/14 08:56:10;;;;;;;6.87;4.40;;;;;;;;;;5045639;28;20846;-45
2022/09/14 08:58:45;;;;;;;6.57;4.60;;;;;;;;;;5044962;28;20410;-48
2022/09/14 09:01:11;;;;;;;6.87;4.57;;;;;;;;;;5045329;28;20435;-46
2022/09/14 09:03:43;;;;;;;7.43;4.30;;;;;;;;;;5032230;28;20410;-45
2022/09/14 09:06:16;;;;;;;5.50;4.83;;;;;;;;;;5040203;28;20412;-46
2022/09/14 09:08:53;;;;;;;8.53;4.80;;;;;;;;;;5050084;28;20881;-47
2022/09/14 09:11:20;;;;;;;9.07;4.83;;;;;;;;;;5043828;28;20429;-50
2022/09/14 09:13:48;;;;;;;6.70;4.70;;;;;;;;;;5032592;28;20399;-46
2022/09/14 09:16:16;;;;;;;6.23;4.53;;;;;;;;;;5045826;28;20469;-54
2022/09/14 09:18:47;;;;;;;6.20;4.37;;;;;;;;;;5045916;28;20426;-48
2022/09/14 09:21:17;;;;;;;5.10;4.30;;;;;;;;;;5048932;28;20420;-47
2022/09/14 09:23:43;;;;;;;8.63;5.67;;;;;;;;;;5050995;28;20406;-45
2022/09/14 09:26:09;;;;;;;6.77;4.67;;;;;;;;;;5038239;28;20468;-45
2022/09/14 09:28:39;;;;;;;9.33;4.07;;;;;;;;;;5032227;28;20406;-46
2022/09/14 09:31:06;;;;;;;4.60;3.60;;;;;;;;;;5049705;28;20508;-47
2022/09/14 09:33:33;;;;;;;4.73;3.93;;;;;;;;;;5051186;28;20476;-50
2022/09/14 09:35:59;;;;;;;4.30;3.10;;;;;;;;;;5031447;28;20508;-51
2022/09/14 09:38:26;;;;;;;3.27;2.97;;;;;;;;;;5031674;28;20402;-51
2022/09/14 09:40:58;;;;;;;3.23;2.90;;;;;;;;;;5033456;28;20421;-49
2022/09/14 09:43:24;;;;;;;2.73;2.53;;;;;;;;;;5049810;28;20419;-48
2022/09/14 09:45:50;;;;;;;2.70;2.50;;;;;;;;;;5051329;28;20449;-48
2022/09/14 09:48:18;;;;;;;5.20;2.83;;;;;;;;;;5048084;28;20824;-50
2022/09/14 09:51:04;;;;;;;5.27;2.87;;;;;;;;;;5035626;28;20417;-51
2022/09/14 09:53:31;;;;;;;5.30;2.80;;;;;;;;;;5049924;28;20417;-51
2022/09/14 09:55:57;;;;;;;2.67;2.47;;;;;;;;;;5051455;28;20464;-51
2022/09/14 09:58:37;;;;;;;3.53;2.60;;;;;;;;;;5035553;28;20414;-52
2022/09/14 10:01:05;;;;;;;4.33;3.17;;;;;;;;;;5031876;28;20477;-50
2022/09/14 10:03:35;;;;;;;3.33;2.67;;;;;;;;;;5045445;28;20415;-50
2022/09/14 10:06:06;;;;;;;9.87;3.37;;;;;;;;;;5044423;28;20445;-45
2022/09/14 10:08:39;;;;;;;7.60;3.23;;;;;;;;;;5037707;28;20425;-47
2022/09/14 10:11:05;;;;;;;3.67;3.00;;;;;;;;;;5031825;28;20398;-47
2022/09/14 10:13:32;;;;;;;3.80;3.47;;;;;;;;;;5050297;28;20979;-49
2022/09/14 10:16:13;;;;;;;3.90;3.40;;;;;;;;;;5052647;28;20552;-45
2022/09/14 10:18:43;;;;;;;5.23;2.93;;;;;;;;;;5033565;28;20418;-46
2022/09/14 10:21:09;;;;;;;3.37;2.97;;;;;;;;;;5031675;28;20400;-47
2022/09/14 10:23:37;;;;;;;4.50;3.53;;;;;;;;;;5048407;28;20409;-47
2022/09/14 10:26:17;;;;;;;5.97;3.67;;;;;;;;;;5049817;28;20434;-45
2022/09/14 10:28:44;;;;;;;4.53;3.90;;;;;;;;;;5032936;28;20735;-45
2022/09/14 10:31:19;;;;;;;5.90;3.27;;;;;;;;;;5031459;28;20814;-45
2022/09/14 10:33:46;;;;;;;6.10;3.80;;;;;;;;;;5050090;28;20512;-45
2022/09/14 10:36:12;;;;;;;6.10;5.50;;;;;;;;;;5050665;28;20489;-47
2022/09/14 10:38:46;;;;;;;4.80;4.40;;;;;;;;;;5042871;28;20392;-45
2022/09/14 10:41:25;;;;;;;4.57;3.90;;;;;;;;;;5051276;28;20372;-45
2022/09/14 10:44:10;;;;;;;3.70;3.23;;;;;;;;;;5050702;28;20418;-48
2022/09/14 10:46:42;;;;;;;6.30;4.03;;;;;;;;;;5050087;28;20421;-46
2022/09/14 10:49:14;;;;;;;3.63;3.33;;;;;;;;;;5032124;28;20413;-47
2022/09/14 10:51:45;;;;;;;5.97;3.10;;;;;;;;;;5036398;28;20463;-45
2022/09/14 10:54:10;;;;;;;4.93;3.50;;;;;;;;;;5055378;28;20376;-48
2022/09/14 10:56:36;;;;;;;4.60;3.40;;;;;;;;;;5054319;28;20774;-48
2022/09/14 10:59:10;;;;;;;7.73;3.57;;;;;;;;;;5035039;28;20433;-47
2022/09/14 11:01:55;;;;;;;6.10;3.40;;;;;;;;;;5035487;28;20462;-47
2022/09/14 11:04:34;;;;;;;5.13;4.33;;;;;;;;;;5054991;28;20395;-48
2022/09/14 11:07:13;;;;;;;4.37;3.73;;;;;;;;;;5051244;28;20427;-47
2022/09/14 11:09:46;;;;;;;3.20;2.93;;;;;;;;;;5034945;28;20376;-47
2022/09/14 11:12:12;;;;;;;4.33;2.77;;;;;;;;;;5040259;28;20454;-47
2022/09/14 11:14:47;;;;;;;4.27;2.87;;;;;;;;;;5054145;28;20453;-47
2022/09/14 11:17:17;;;;;;;4.13;2.57;;;;;;;;;;5052975;28;20436;-47
2022/09/14 11:19:52;;;;;;;3.37;2.50;;;;;;;;;;5053981;28;20934;-47
2022/09/14 11:22:18;;;;;;;4.70;2.53;;;;;;;;;;5039233;28;20418;-48
2022/09/14 11:24:50;;;;;;;3.17;2.67;;;;;;;;;;5034261;28;20414;-48
2022/09/14 11:27:24;;;;;;;6.17;3.00;;;;;;;;;;5048465;28;20551;-47
2022/09/14 11:29:55;;;;;;;9.90;3.10;;;;;;;;;;5054375;28;20407;-48
2022/09/14 11:32:24;;;;;;;2.60;2.40;;;;;;;;;;5038340;28;20961;-47
2022/09/14 11:34:56;;;;;;;5.37;2.23;;;;;;;;;;5041391;28;20427;-47
2022/09/14 11:37:46;;;;;;;7.37;2.67;;;;;;;;;;5041424;28;20470;-48
2022/09/14 11:40:21;;;;;;;5.63;2.20;;;;;;;;;;5044213;28;20419;-48
2022/09/14 11:43:06;;;;;;;2.10;2.00;;;;;;;;;;5040642;28;20409;-47
2022/09/14 11:45:44;;;;;;;4.13;3.10;;;;;;;;;;5033623;28;20376;-48
2022/09/14 11:48:19;;;;;;;4.70;3.00;;;;;;;;;;5035395;28;20422;-49
2022/09/14 11:50:50;;;;;;;5.90;3.27;;;;;;;;;;5034217;28;20905;-48
2022/09/14 11:53:16;;;;;;;3.67;3.00;;;;;;;;;;5050255;28;20401;-47
2022/09/14 11:55:50;;;;;;;5.73;2.90;;;;;;;;;;5053375;28;20462;-48
2022/09/14 11:58:20;;;;;;;2.67;2.43;;;;;;;;;;5037463;28;20776;-48
2022/09/14 12:01:00;;;;;;;3.43;3.13;;;;;;;;;;5032805;28;20766;-48
2022/09/14 12:03:55;;;;;;;3.77;3.30;;;;;;;;;;5038430;28;20880;-48
2022/09/14 12:06:30;;;;;;;3.50;2.80;;;;;;;;;;5048709;28;20433;-47
2022/09/14 12:09:20;;;;;;;3.97;2.63;;;;;;;;;;5034245;28;20409;-48
2022/09/14 12:11:47;;;;;;;7.57;2.83;;;;;;;;;;5034605;28;20392;-48
2022/09/14 12:14:29;;;;;;;3.30;2.40;;;;;;;;;;5033750;28;20924;-47
2022/09/14 12:17:13;;;;;;;7.60;2.13;;;;;;;;;;5033775;28;20413;-47
2022/09/14 12:19:40;;;;;;;3.27;2.67;;;;;;;;;;5034203;28;20469;-48
2022/09/14 12:22:18;;;;;;;3.80;3.07;;;;;;;;;;5053574;28;20463;-47
2022/09/14 12:24:44;;;;;;;2.93;2.73;;;;;;;;;;5051940;28;20474;-47
2022/09/14 12:27:22;;;;;;;2.93;2.53;;;;;;;;;;5033844;28;20456;-48
2022/09/14 12:29:48;;;;;;;7.43;2.97;;;;;;;;;;5043536;28;20444;-47
2022/09/14 12:32:24;;;;;;;5.93;3.10;;;;;;;;;;5035243;28;20415;-47
2022/09/14 12:35:10;;;;;;;7.90;2.70;;;;;;;;;;5033464;28;20426;-47
2022/09/14 12:37:36;;;;;;;2.93;2.60;;;;;;;;;;5033284;28;20493;-48
2022/09/14 12:40:13;;;;;;;9.90;3.23;;;;;;;;;;5044094;28;20508;-47
2022/09/14 12:42:39;;;;;;;6.00;2.57;;;;;;;;;;5053219;28;20390;-48
2022/09/14 12:45:23;;;;;;;6.50;2.80;;;;;;;;;;5050900;28;20485;-47
2022/09/14 12:47:50;;;;;;;2.97;2.77;;;;;;;;;;5053118;28;20376;-49
2022/09/14 12:50:18;;;;;;;3.40;3.10;;;;;;;;;;5041350;28;20427;-47
2022/09/14 12:53:01;;;;;;;3.43;3.20;;;;;;;;;;5033309;28;20398;-47
2022/09/14 12:55:33;;;;;;;3.40;3.10;;;;;;;;;;5033798;28;20429;-47
2022/09/14 12:58:02;;;;;;;3.37;3.10;;;;;;;;;;5033054;28;20965;-47
2022/09/14 13:00:34;;;;;;;3.30;3.10;;;;;;;;;;5042219;28;20385;-47
2022/09/14 13:03:06;;;;;;;4.77;3.30;;;;;;;;;;5033713;28;20415;-47
2022/09/14 13:05:33;;;;;;;8.33;3.73;;;;;;;;;;5032450;28;20394;-47
2022/09/14 13:07:59;;;;;;;4.83;2.83;;;;;;;;;;5032487;28;20415;-47
2022/09/14 13:10:33;;;;;;;11.13;4.37;;;;;;;;;;5040951;28;20382;-49
2022/09/14 13:13:04;;;;;;;8.20;2.73;;;;;;;;;;5052817;28;20421;-47
2022/09/14 13:15:36;;;;;;;3.37;2.77;;;;;;;;;;5039790;28;20458;-48
2022/09/14 13:18:03;;;;;;;4.37;2.93;;;;;;;;;;5036027;28;20825;-47
2022/09/14 13:20:31;;;;;;;3.33;3.00;;;;;;;;;;5052677;28;20373;-48
2022/09/14 13:22:57;;;;;;;3.60;3.30;;;;;;;;;;5050836;28;20414;-48
2022/09/14 13:25:27;;;;;;;3.53;2.77;;;;;;;;;;5052104;28;20410;-47
2022/09/14 13:27:54;;;;;;;4.33;2.77;;;;;;;;;;5050190;28;20422;-47
2022/09/14 13:30:24;;;;;;;4.23;3.30;;;;;;;;;;5033036;28;20488;-47
2022/09/14 13:32:53;;;;;;;3.50;2.70;;;;;;;;;;5033248;28;20754;-48
2022/09/14 13:35:27;;;;;;;2.87;2.67;;;;;;;;;;5031717;28;20446;-48
2022/09/14 13:37:53;;;;;;;4.27;3.87;;;;;;;;;;5035954;28;20420;-48
2022/09/14 13:40:24;;;;;;;4.40;3.20;;;;;;;;;;5032574;28;20403;-48
2022/09/14 13:42:50;;;;;;;6.80;4.00;;;;;;;;;;5033247;28;20804;-48
2022/09/14 13:45:16;;;;;;;5.20;4.60;;;;;;;;;;5031768;28;20500;-48
2022/09/14 13:47:42;;;;;;;6.97;3.33;;;;;;;;;;5049490;28;20518;-48
2022/09/14 13:50:08;;;;;;;5.27;3.30;;;;;;;;;;5036201;28;20452;-47
2022/09/14 13:52:36;;;;;;;5.93;3.47;;;;;;;;;;5032102;28;20865;-48
2022/09/14 13:55:11;;;;;;;3.60;3.30;;;;;;;;;;5046610;28;20877;-48
2022/09/14 13:57:37;;;;;;;4.23;3.77;;;;;;;;;;5052180;28;20404;-48
2022/09/14 14:00:07;;;;;;;6.00;4.40;;;;;;;;;;5050386;28;20422;-47
2022/09/14 14:02:34;;;;;;;3.83;3.53;;;;;;;;;;5049709;28;20424;-48
2022/09/14 14:05:01;;;;;;;4.13;2.93;;;;;;;;;;5050296;28;20405;-47
2022/09/14 14:07:31;;;;;;;7.33;3.40;;;;;;;;;;5049746;28;20388;-47
2022/09/14 14:09:58;;;;;;;6.67;3.63;;;;;;;;;;5030447;28;20417;-48
2022/09/14 14:12:28;;;;;;;5.17;3.50;;;;;;;;;;5032548;28;20436;-47
2022/09/14 14:14:59;;;;;;;3.57;3.17;;;;;;;;;;5050580;28;20452;-47
2022/09/14 14:17:32;;;;;;;5.20;3.70;;;;;;;;;;5049977;28;20493;-47
2022/09/14 14:20:20;;;;;;;6.27;3.57;;;;;;;;;;5031468;28;20396;-47
2022/09/14 14:22:57;;;;;;;5.07;4.07;;;;;;;;;;5036968;28;20944;-46
2022/09/14 14:25:33;;;;;;;3.30;3.00;;;;;;;;;;5030637;28;20417;-46
2022/09/14 14:28:01;;;;;;;7.93;3.73;;;;;;;;;;5036140;28;20418;-46
2022/09/14 14:30:28;;;;;;;4.10;3.37;;;;;;;;;;5051487;28;20436;-48
2022/09/14 14:32:55;;;;;;;3.90;3.43;;;;;;;;;;5049763;28;20391;-46
2022/09/14 14:35:23;;;;;;;4.33;3.37;;;;;;;;;;5050685;28;20423;-45
2022/09/14 14:37:50;;;;;;;7.57;3.03;;;;;;;;;;5051099;28;20906;-47
2022/09/14 14:40:16;;;;;;;5.03;3.53;;;;;;;;;;5051400;28;20377;-47
2022/09/14 14:42:42;;;;;;;7.17;3.33;;;;;;;;;;5051421;28;20416;-47
2022/09/14 14:45:13;;;;;;;3.20;2.93;;;;;;;;;;5050722;28;20904;-50
2022/09/14 14:47:39;;;;;;;3.80;3.17;;;;;;;;;;5051144;28;20442;-52
2022/09/14 14:50:12;;;;;;;5.43;3.27;;;;;;;;;;5051158;28;20410;-50
2022/09/14 14:52:38;;;;;;;6.27;2.90;;;;;;;;;;5051399;28;20442;-51
2022/09/14 14:55:04;;;;;;;3.70;3.40;;;;;;;;;;5050537;28;20492;-51